Time;durP1;ratioP1;P1;durP2;ratioP2;P2;SDS_P1;SDS_P2;PMS_P1;PMS_P2;Temp;Humidity;BMP_temperature;BMP_pressure;BME280_temperature;BME280_humidity;BME280_pressure;Samples;Min_cycle;Max_cycle;Signal;HPM_P1;HPM_P2
2023/09/17 00:07:33;;;;;;;25.88;21.40;;;;;;;20.17;71.10;100276.31;20583501;28;20250;-82
2023/09/17 00:17:37;;;;;;;24.55;21.67;;;;;;;19.90;72.23;100279.31;20577715;28;20208;-79
2023/09/17 00:27:39;;;;;;;25.83;21.40;;;;;;;19.69;72.36;100261.97;20589128;28;20238;-79
2023/09/17 00:37:43;;;;;;;24.33;20.58;;;;;;;19.73;71.79;100262.84;20608507;28;20233;-79
2023/09/17 00:47:52;;;;;;;24.35;19.25;;;;;;;19.77;71.40;100257.97;20601158;28;20227;-80
2023/09/17 00:57:55;;;;;;;23.55;20.42;;;;;;;19.53;71.81;100256.53;20603271;28;20324;-80
2023/09/17 01:07:57;;;;;;;22.60;20.23;;;;;;;19.45;72.57;100249.09;20588765;28;20326;-80
2023/09/17 01:18:01;;;;;;;22.90;19.85;;;;;;;19.06;73.95;100239.25;20583420;28;20572;-79
2023/09/17 01:28:06;;;;;;;22.10;19.85;;;;;;;19.09;73.75;100227.06;20588442;28;20230;-86
2023/09/17 01:38:11;;;;;;;27.40;21.45;;;;;;;19.23;73.03;100228.03;20590459;28;20233;-85
2023/09/17 01:48:16;;;;;;;27.77;21.63;;;;;;;19.44;72.15;100229.53;20598915;28;20563;-82
2023/09/17 01:58:18;;;;;;;25.88;20.45;;;;;;;18.19;78.63;100272.59;20593293;28;20230;-79
2023/09/17 02:08:21;;;;;;;23.02;20.20;;;;;;;18.58;75.13;100262.63;20595670;28;20501;-78
2023/09/17 02:18:22;;;;;;;28.02;21.30;;;;;;;18.54;75.17;100270.31;20599060;28;20307;-79
2023/09/17 02:28:26;;;;;;;24.05;21.58;;;;;;;18.85;73.72;100279.72;20602001;28;20224;-80
2023/09/17 02:38:27;;;;;;;23.48;21.02;;;;;;;18.76;73.06;100264.94;20593214;28;20725;-79
2023/09/17 02:48:32;;;;;;;20.95;18.63;;;;;;;18.51;71.69;100242.59;20595113;28;20227;-79
2023/09/17 02:58:34;;;;;;;22.67;18.40;;;;;;;18.59;71.15;100241.47;20600067;28;20237;-80
2023/09/17 03:08:41;;;;;;;19.00;17.08;;;;;;;18.92;68.61;100222.78;20589770;28;20233;-80
2023/09/17 03:18:43;;;;;;;21.48;18.85;;;;;;;18.54;70.90;100215.34;20581183;28;20297;-79
2023/09/17 03:28:46;;;;;;;20.17;18.13;;;;;;;18.52;70.06;100221.44;20603209;28;20268;-79
2023/09/17 03:38:48;;;;;;;20.98;17.23;;;;;;;18.15;71.61;100240.41;20580150;28;20290;-80
2023/09/17 03:48:51;;;;;;;22.27;18.73;;;;;;;18.47;70.77;100220.94;20574502;28;20523;-81
2023/09/17 03:58:53;;;;;;;21.98;18.05;;;;;;;18.51;70.52;100219.78;20593777;28;20234;-82
2023/09/17 04:08:57;;;;;;;22.67;19.42;;;;;;;18.31;71.21;100214.63;20597407;28;20233;-84
2023/09/17 04:18:59;;;;;;;22.17;19.88;;;;;;;18.57;71.06;100208.88;20596264;28;20309;-79
2023/09/17 04:29:04;;;;;;;24.80;20.50;;;;;;;18.24;71.75;100209.63;20603604;28;20225;-79
2023/09/17 04:39:09;;;;;;;25.08;20.70;;;;;;;18.05;72.78;100209.75;20600358;28;20676;-83
2023/09/17 04:49:12;;;;;;;27.35;21.80;;;;;;;17.53;74.50;100211.28;20611205;28;20219;-79
2023/09/17 04:59:14;;;;;;;25.13;21.33;;;;;;;17.73;73.45;100210.00;20605082;28;20677;-86
2023/09/17 05:09:17;;;;;;;25.48;22.75;;;;;;;18.11;72.49;100202.50;20596307;28;20234;-92
2023/09/17 05:19:19;;;;;;;29.25;24.05;;;;;;;18.13;72.30;100191.56;20592964;28;20306;-87
2023/09/17 05:29:22;;;;;;;30.58;24.23;;;;;;;18.55;70.81;100195.03;20578776;28;20237;-79
2023/09/17 05:39:23;;;;;;;28.42;24.85;;;;;;;18.12;73.16;100207.81;20586005;28;20198;-86
2023/09/17 05:49:26;;;;;;;27.25;22.63;;;;;;;18.33;72.46;100203.63;20604544;28;20226;-86
2023/09/17 05:59:28;;;;;;;26.98;23.70;;;;;;;18.68;71.37;100209.06;20609187;28;20229;-85
2023/09/17 06:09:33;;;;;;;26.80;22.40;;;;;;;18.30;73.97;100204.41;20613034;28;20262;-90
2023/09/17 06:19:37;;;;;;;27.45;24.55;;;;;;;18.77;71.91;100195.31;20599955;28;20201;-92
2023/09/17 06:29:40;;;;;;;26.05;23.23;;;;;;;18.56;72.68;100190.97;20594524;28;20226;-79
2023/09/17 06:39:43;;;;;;;26.83;23.70;;;;;;;19.00;71.39;100187.44;20595458;28;20301;-91
2023/09/17 06:49:47;;;;;;;26.70;23.92;;;;;;;19.06;71.91;100188.75;20586534;28;20221;-91
2023/09/17 06:59:49;;;;;;;26.80;23.88;;;;;;;19.21;71.28;100181.97;20588150;28;20248;-79
2023/09/17 07:09:52;;;;;;;25.95;23.00;;;;;;;19.36;71.44;100179.28;20580999;28;20535;-79
2023/09/17 07:19:53;;;;;;;26.85;21.88;;;;;;;19.66;70.64;100179.97;20572928;28;20212;-79
2023/09/17 07:29:57;;;;;;;24.92;22.27;;;;;;;19.45;72.61;100172.06;20590328;28;20313;-79
2023/09/17 07:40:01;;;;;;;22.75;20.13;;;;;;;20.20;69.92;100178.38;20589404;28;20262;-80
2023/09/17 07:50:05;;;;;;;23.17;19.17;;;;;;;20.44;69.56;100171.97;20579826;28;20249;-79
2023/09/17 08:00:08;;;;;;;12.65;11.35;;;;;;;20.31;70.17;100179.25;20582973;28;20305;-79
2023/09/17 08:10:13;;;;;;;10.85;8.85;;;;;;;21.12;66.95;100181.66;20584532;28;20218;-85
2023/09/17 08:20:15;;;;;;;7.30;6.60;;;;;;;21.71;63.54;100183.00;20580733;28;20357;-85
2023/09/17 08:30:20;;;;;;;5.00;4.28;;;;;;;20.88;64.96;100188.13;20582509;28;20227;-79
2023/09/17 08:40:24;;;;;;;5.55;4.85;;;;;;;21.26;65.31;100184.59;20593022;28;20206;-79
2023/09/17 08:50:32;;;;;;;3.00;2.80;;;;;;;21.33;61.00;100192.38;20598325;28;20226;-78
2023/09/17 09:00:36;;;;;;;3.63;2.80;;;;;;;22.31;55.98;100195.66;20584455;28;20226;-78
2023/09/17 09:10:40;;;;;;;5.35;3.13;;;;;;;21.78;59.40;100176.47;20590875;28;20233;-78
2023/09/17 09:20:42;;;;;;;3.10;2.75;;;;;;;22.52;55.97;100189.09;20582617;28;20728;-79
2023/09/17 09:30:45;;;;;;;2.90;2.45;;;;;;;22.33;55.91;100187.47;20584403;28;20246;-82
2023/09/17 09:40:47;;;;;;;4.05;2.67;;;;;;;22.81;53.63;100190.63;20580625;28;20208;-88
2023/09/17 09:50:53;;;;;;;2.58;2.15;;;;;;;22.81;53.16;100187.75;20583846;28;20226;-87
2023/09/17 10:00:55;;;;;;;2.47;2.00;;;;;;;22.71;51.70;100183.69;20580664;28;20234;-78
2023/09/17 10:10:58;;;;;;;2.25;2.05;;;;;;;23.13;50.30;100181.84;20586474;28;20700;-79
2023/09/17 10:21:00;;;;;;;3.50;2.20;;;;;;;23.91;50.71;100170.63;20587078;28;20765;-79
2023/09/17 10:31:04;;;;;;;2.00;1.90;;;;;;;23.38;50.50;100176.78;20565340;28;20222;-84
2023/09/17 10:41:06;;;;;;;2.97;2.30;;;;;;;23.38;49.03;100171.03;20578387;28;20210;-79
2023/09/17 10:51:09;;;;;;;2.05;1.85;;;;;;;23.82;48.70;100146.50;20571123;28;20221;-78
2023/09/17 11:01:13;;;;;;;1.90;1.80;;;;;;;24.30;47.35;100146.44;20583039;28;20273;-78
2023/09/17 11:11:18;;;;;;;3.75;1.80;;;;;;;23.80;46.92;100154.72;20571595;28;20305;-78
2023/09/17 11:21:20;;;;;;;2.20;1.98;;;;;;;23.89;45.66;100150.16;20573837;28;20215;-79
2023/09/17 11:31:26;;;;;;;4.43;2.15;;;;;;;23.40;48.22;100150.50;20587933;28;20225;-78
2023/09/17 11:41:31;;;;;;;3.33;2.25;;;;;;;24.42;46.04;100145.09;20572177;28;20855;-81
2023/09/17 11:51:34;;;;;;;3.17;1.80;;;;;;;23.91;46.65;100143.94;20577621;28;20222;-79
2023/09/17 12:01:37;;;;;;;3.10;2.20;;;;;;;24.54;46.30;100153.19;20583129;28;20234;-88
2023/09/17 12:11:41;;;;;;;4.22;2.05;;;;;;;24.55;44.88;100146.16;20579932;28;20672;-81
2023/09/17 12:21:44;;;;;;;4.18;2.55;;;;;;;24.40;45.30;100138.97;20590123;28;20201;-79
2023/09/17 12:31:47;;;;;;;2.70;2.30;;;;;;;24.04;46.01;100147.91;20595859;28;20301;-81
2023/09/17 12:41:49;;;;;;;4.25;2.08;;;;;;;24.73;44.08;100143.09;20578535;28;20228;-79
2023/09/17 12:51:53;;;;;;;2.53;1.85;;;;;;;24.67;43.58;100134.13;20595131;28;20261;-89
2023/09/17 13:01:58;;;;;;;4.13;2.65;;;;;;;24.61;44.63;100127.19;20593076;28;20242;-80
2023/09/17 13:33:13;;;;;;;3.55;1.95;;;;;;;24.71;43.06;100132.00;21118989;27;20394;-79
2023/09/17 13:43:15;;;;;;;2.58;1.73;;;;;;;24.57;43.64;100120.66;21100853;28;20518;-78
2023/09/17 13:53:19;;;;;;;2.72;2.22;;;;;;;23.94;45.03;100104.91;21097465;28;20220;-77
2023/09/17 14:03:21;;;;;;;2.38;2.00;;;;;;;24.67;44.88;100096.72;21113313;28;20202;-79
2023/09/17 14:13:24;;;;;;;4.65;2.13;;;;;;;24.14;45.14;100083.81;21104617;28;20594;-79
2023/09/17 14:23:26;;;;;;;3.20;1.80;;;;;;;24.53;43.73;100080.44;21029203;28;20222;-81
2023/09/17 15:05:43;;;;;;;15.57;10.00;;;;;;;24.01;46.83;100081.88;21238950;27;1531598;-81
2023/09/17 15:15:47;;;;;;;2.33;1.90;;;;;;;23.97;47.88;100075.34;21238454;27;20612;-83
2023/09/17 15:25:51;;;;;;;4.13;1.73;;;;;;;23.87;47.22;100065.59;21224573;27;20259;-82
2023/09/17 15:35:52;;;;;;;2.33;2.08;;;;;;;23.95;49.04;100064.25;21222295;27;20194;-81
2023/09/17 15:45:56;;;;;;;5.00;2.60;;;;;;;23.81;49.70;100070.16;21210273;27;20222;-82
2023/09/17 15:55:57;;;;;;;2.30;2.10;;;;;;;23.95;50.64;100072.88;21226497;27;20291;-83
2023/09/17 16:06:01;;;;;;;2.33;2.13;;;;;;;23.83;52.32;100079.16;21173432;27;20217;-85
2023/09/17 16:16:02;;;;;;;7.95;2.67;;;;;;;23.47;54.00;100081.53;21166520;27;20582;-81
2023/09/17 16:26:06;;;;;;;2.72;2.22;;;;;;;23.36;53.29;100064.41;21166680;27;20224;-82
2023/09/17 16:36:08;;;;;;;3.67;2.80;;;;;;;23.56;54.71;100050.31;21182986;27;20517;-81
2023/09/17 16:46:11;;;;;;;6.22;3.10;;;;;;;23.03;56.63;100047.84;21152404;27;20225;-81
2023/09/17 16:56:13;;;;;;;6.35;2.63;;;;;;;22.76;58.67;100042.69;21145794;27;20489;-82
2023/09/17 17:06:16;;;;;;;3.00;2.30;;;;;;;22.82;57.56;100034.47;21151883;27;20221;-85
2023/09/17 17:16:18;;;;;;;4.85;3.33;;;;;;;22.76;58.89;100051.28;21157164;27;20203;-82
2023/09/17 17:26:21;;;;;;;4.50;3.50;;;;;;;22.67;59.87;100045.19;21168097;27;20229;-81
2023/09/17 17:36:23;;;;;;;3.90;3.40;;;;;;;22.19;61.15;100042.16;21151331;27;20736;-81
2023/09/17 17:46:26;;;;;;;5.85;3.20;;;;;;;22.23;60.45;100042.09;21153964;27;20228;-82
2023/09/17 17:56:27;;;;;;;3.50;3.20;;;;;;;22.14;60.41;100028.25;21166103;27;20677;-81
2023/09/17 18:06:31;;;;;;;3.53;3.15;;;;;;;21.92;61.86;100036.09;21152523;27;20331;-82
2023/09/17 18:16:33;;;;;;;4.53;3.67;;;;;;;21.90;62.43;100032.81;21155805;27;20204;-82
2023/09/17 18:26:36;;;;;;;5.32;3.53;;;;;;;21.83;63.09;100029.97;21152343;27;20221;-81
2023/09/17 18:36:41;;;;;;;4.60;3.78;;;;;;;21.66;63.43;100013.63;21156074;27;20247;-81
2023/09/17 18:46:44;;;;;;;4.53;3.95;;;;;;;21.71;63.19;100016.06;21155881;27;20243;-81
2023/09/17 18:56:46;;;;;;;6.45;4.07;;;;;;;21.27;64.86;100005.94;21150582;28;20778;-82
2023/09/17 19:06:49;;;;;;;4.90;4.20;;;;;;;21.16;65.91;100013.69;21144181;28;20232;-80
2023/09/17 19:16:50;;;;;;;6.57;4.05;;;;;;;20.78;67.41;100008.75;21159045;28;20235;-80
2023/09/17 19:26:54;;;;;;;7.50;4.22;;;;;;;20.94;66.24;99983.41;21140836;28;20214;-81
2023/09/17 19:36:55;;;;;;;4.32;3.80;;;;;;;20.66;67.83;99982.16;21162753;27;20501;-80
2023/09/17 19:46:59;;;;;;;4.75;4.00;;;;;;;20.67;67.86;99980.94;21161451;27;20238;-81
2023/09/17 19:57:01;;;;;;;4.15;3.58;;;;;;;20.64;67.69;99958.91;21158323;27;20278;-81
2023/09/17 20:07:04;;;;;;;5.60;3.70;;;;;;;20.76;66.45;99937.66;21162704;27;20214;-80
2023/09/17 20:17:06;;;;;;;4.53;4.13;;;;;;;20.70;66.58;99908.66;21176857;27;20725;-80
2023/09/17 20:27:09;;;;;;;6.20;3.67;;;;;;;20.55;67.34;99920.44;21172839;27;20213;-81
2023/09/17 20:37:12;;;;;;;4.72;3.70;;;;;;;20.15;69.36;99925.28;21170655;27;20202;-81
2023/09/17 20:47:15;;;;;;;4.32;3.90;;;;;;;20.74;66.04;99911.53;21167221;27;20220;-82
2023/09/17 20:57:18;;;;;;;4.05;3.45;;;;;;;21.05;64.59;99904.94;21164162;27;20654;-81
2023/09/17 21:07:21;;;;;;;5.47;3.97;;;;;;;20.50;67.09;99915.97;21162357;27;20218;-81
2023/09/17 21:17:23;;;;;;;5.18;3.80;;;;;;;20.26;68.68;99911.03;21171596;27;20201;-82
2023/09/17 21:27:27;;;;;;;4.90;3.90;;;;;;;20.28;68.27;99888.56;21164246;27;20217;-81
2023/09/17 21:37:31;;;;;;;4.15;3.70;;;;;;;19.46;71.66;99894.03;21179809;27;20288;-81
2023/09/17 21:47:34;;;;;;;5.07;4.03;;;;;;;19.98;68.95;99892.63;21169338;27;20753;-84
2023/09/17 21:57:36;;;;;;;6.80;3.38;;;;;;;19.72;69.81;99887.19;21167600;27;20308;-81
2023/09/17 22:07:39;;;;;;;5.07;4.30;;;;;;;19.96;68.78;99888.53;21156909;27;20213;-81
2023/09/17 22:17:40;;;;;;;6.57;4.35;;;;;;;19.83;68.99;99885.19;21171181;27;20202;-81
2023/09/17 22:27:44;;;;;;;4.63;3.80;;;;;;;19.76;68.37;99856.59;21151469;27;20504;-81
2023/09/17 22:37:45;;;;;;;7.72;4.10;;;;;;;19.36;70.92;99848.28;21152114;27;20540;-81
2023/09/17 22:47:49;;;;;;;5.55;4.32;;;;;;;19.38;71.22;99823.03;21116279;28;20229;-85
2023/09/17 22:57:50;;;;;;;7.93;4.70;;;;;;;19.45;70.39;99811.66;21131049;28;20228;-81
2023/09/17 23:07:53;;;;;;;6.10;5.00;;;;;;;19.46;69.75;99776.19;21158319;27;20217;-81
2023/09/17 23:17:56;;;;;;;6.78;4.90;;;;;;;19.77;67.77;99777.47;21169622;27;20288;-82
2023/09/17 23:27:59;;;;;;;7.00;4.25;;;;;;;19.72;68.11;99757.91;21180597;27;20513;-82
2023/09/17 23:38:01;;;;;;;6.90;4.30;;;;;;;19.69;67.76;99725.28;21181744;27;20190;-81
2023/09/17 23:48:04;;;;;;;6.13;3.70;;;;;;;19.65;67.44;99721.59;21177726;27;20226;-81
2023/09/17 23:58:06;;;;;;;5.95;4.13;;;;;;;19.79;66.42;99695.91;21173195;27;20228;-81
